Terminal Aerodrome Forecast
Issued by NWS Norman, OK

Home | Current Version | Previous Version | Text Only | Print | Product List | Glossary On
Versions: 1 2 3 4 5 6 7 8 9 10 11 12 13 14 15 16 17 18 19 20 21 22 23 24 25 26 27 28 29 30 31
000
FTUS44 KOUN 200048 RRA
TAFSPS
TAF
KSPS 200048Z 2001/2024 15007KT 5SM -RA BR SCT030 SCT050 OVC100
      TEMPO 2001/2002 2SM TSRA BR OVC008CB
     FM200600 19010KT P6SM SCT015 BKN100=

USA.gov is the U.S. government's official web portal to all federal, state and local government web resources and services.